• Join FlightAware (Why Join?)
  • Login
  • US Flag 
04:17AM EST


 

Airport Tracker/Info


-or-


 

Live Flight TrackerFlight Track Log ✈ N724AE ✈ 06-Apr-2013 ✈ KDFW - KMAF

Flight Track Log - Related Links

Times and Time Zones

All times are in EDT time to prevent confusion due to time zone crossing. See the N724AE flight status page for this flight to view local times or setup timezone preferences in your user account.

Time Position Orientation Groundspeed Altitude Reporting Facility
EDT Latitude Longitude Course Direction KTS MPH feet Rate Location/Type
04:04PM 32.8500 -97.0500 275° West 184 212 3,400  Level Dallas / Fort Worth TRACON
04:05PM 32.6833 -97.1658 270° West  Level FlightAware Approximate
04:05PM 32.7833 -97.0500 180° South 223 257 5,900  Level Dallas / Fort Worth TRACON
04:06PM 32.6855 -97.2778 275° West  Level FlightAware Approximate
04:06PM 32.7500 -97.1167 239° Southwest 269 310 8,100  Level Dallas / Fort Worth TRACON
04:07PM 32.6941 -97.3895 275° West  Level FlightAware Approximate
04:07PM 32.7500 -97.2000 270° West 276 318 10,400  Level Dallas / Fort Worth TRACON
04:08PM 32.7027 -97.5013 275° West  Level FlightAware Approximate
04:08PM 32.7478 -97.2972 268° West 279 321 13,100  Level Fort Worth Center
04:09PM 32.7113 -97.6130 275° West  Level FlightAware Approximate
04:09PM 32.7414 -97.3911 265° West 279 321 14,900  Level Fort Worth Center
04:10PM 32.7372 -97.4800 267° West 291 335 16,800 1,980 Climbing Fort Worth Center
04:11PM 32.7308 -97.5911 266° West 302 348 18,900 1,980 Climbing Fort Worth Center
04:12PM 32.7267 -97.6875 267° West 315 362 20,800 1,980 Climbing Fort Worth Center
04:13PM 32.7242 -97.8036 269° West 320 368 22,900 1,920 Climbing Fort Worth Center
04:14PM 32.7258 -97.9047 271° West 331 381 24,700 1,860 Climbing Fort Worth Center
04:15PM 32.7256 -98.0111 270° West 331 381 26,700 1,800 Climbing Fort Worth Center
04:16PM 32.7103 -98.1172 260° West 325 374 28,400 1,560 Climbing Fort Worth Center
04:17PM 32.6992 -98.2206 263° West 330 380 29,900 1,440 Climbing Fort Worth Center
04:18PM 32.6858 -98.3292 262° West 330 380 31,300 1,020 Climbing Fort Worth Center
04:19PM 32.6706 -98.4450 261° West 343 395 32,000 300 Climbing Fort Worth Center
04:20PM 32.6569 -98.5608 262° West 349 402 32,000  Level Fort Worth Center
04:21PM 32.6392 -98.6789 260° West 355 409 32,000  Level Fort Worth Center
04:22PM 32.6231 -98.7972 261° West 361 415 32,000  Level Fort Worth Center
04:23PM 32.6094 -98.9128 262° West 361 415 32,000  Level Fort Worth Center
04:24PM 32.5933 -99.0333 261° West 366 421 32,000  Level Fort Worth Center
04:25PM 32.5769 -99.1639 262° West 372 428 32,000  Level Fort Worth Center
04:26PM 32.5583 -99.2867 260° West 372 428 32,000  Level Fort Worth Center
04:27PM 32.5419 -99.4094 261° West 372 428 32,000  Level Fort Worth Center
04:28PM 32.5253 -99.5322 261° West 382 440 32,000  Level Fort Worth Center
04:29PM 32.5000 -99.6575 257° West 382 440 32,000  Level Fort Worth Center
04:30PM 32.4728 -99.7797 255° West 388 447 32,000  Level Fort Worth Center
04:31PM 32.4456 -99.8997 255° West 388 447 32,000  Level Fort Worth Center
04:32PM 32.4222 -100.0197 257° West 388 447 32,000 -300 Level Fort Worth Center
04:33PM 32.3986 -100.1397 257° West 388 447 31,400 -1,020 Descending Fort Worth Center
04:34PM 32.3731 -100.2617 256° West 388 447 30,000 -1,500 Descending Fort Worth Center
04:35PM 32.3472 -100.3814 256° West 388 447 28,500 -1,500 Descending Fort Worth Center
04:36PM 32.3214 -100.5011 256° West 388 447 27,100 -1,320 Descending Fort Worth Center
04:37PM 32.2956 -100.6133 255° West 388 447 25,900 -1,320 Descending Fort Worth Center
04:38PM 32.2717 -100.7353 257° West 394 453 24,500 -1,440 Descending Fort Worth Center
04:39PM 32.2433 -100.8594 255° West 394 453 23,100 -1,500 Descending Fort Worth Center
04:40PM 32.2189 -100.9814 257° West 394 453 21,600 -1,500 Descending Fort Worth Center
04:41PM 32.1903 -101.1053 255° West 394 453 20,200 -1,500 Descending Fort Worth Center
04:42PM 32.1614 -101.2342 255° West 387 445 18,600 -1,560 Descending Fort Worth Center
04:43PM 32.1369 -101.3533 256° West 387 445 17,100 -1,500 Descending Fort Worth Center
04:44PM 32.1147 -101.4603 256° West 368 423 15,700 -1,500 Descending Fort Worth Center
04:45PM 32.0928 -101.5525 254° West 331 381 14,200 -1,860 Descending Fort Worth Center
04:46PM 32.0733 -101.6375 255° West 293 337 12,000 -2,100 Descending Fort Worth Center
04:47PM 32.0539 -101.7197 254° West 275 316 10,000 -1,980 Descending Fort Worth Center
04:48PM 32.0342 -101.8072 255° West 275 316 8,100 -1,740 Descending Fort Worth Center
04:49PM 32.0167 -101.8872 256° West 270 311 6,600 -1,080 Descending Fort Worth Center
04:50PM 31.9992 -101.9647 255° West 258 297 6,000 -600 Descending Fort Worth Center